sensor_id;sensor_type;location;lat;lon;timestamp;temperature;humidity
38514;DHT22;24282;48.400;10.808;2023-05-27T00:00:07;15.50;65.20
38514;DHT22;24282;48.400;10.808;2023-05-27T00:02:34;15.50;65.10
38514;DHT22;24282;48.400;10.808;2023-05-27T00:05:00;15.50;64.90
38514;DHT22;24282;48.400;10.808;2023-05-27T00:07:26;15.50;65.10
38514;DHT22;24282;48.400;10.808;2023-05-27T00:09:53;15.40;65.20
38514;DHT22;24282;48.400;10.808;2023-05-27T00:12:19;15.40;64.90
38514;DHT22;24282;48.400;10.808;2023-05-27T00:14:45;15.40;64.60
38514;DHT22;24282;48.400;10.808;2023-05-27T00:17:11;15.40;64.50
38514;DHT22;24282;48.400;10.808;2023-05-27T00:19:39;15.40;64.80
38514;DHT22;24282;48.400;10.808;2023-05-27T00:22:05;15.40;64.70
38514;DHT22;24282;48.400;10.808;2023-05-27T00:24:32;15.40;64.50
38514;DHT22;24282;48.400;10.808;2023-05-27T00:26:58;15.30;64.70
38514;DHT22;24282;48.400;10.808;2023-05-27T00:29:23;15.30;64.20
38514;DHT22;24282;48.400;10.808;2023-05-27T00:31:50;15.30;64.40
38514;DHT22;24282;48.400;10.808;2023-05-27T00:34:16;15.30;64.40
38514;DHT22;24282;48.400;10.808;2023-05-27T00:36:41;15.20;64.40
38514;DHT22;24282;48.400;10.808;2023-05-27T00:39:07;15.20;64.30
38514;DHT22;24282;48.400;10.808;2023-05-27T00:41:33;15.20;64.20
38514;DHT22;24282;48.400;10.808;2023-05-27T00:44:00;15.10;64.40
38514;DHT22;24282;48.400;10.808;2023-05-27T00:46:26;15.10;63.70
38514;DHT22;24282;48.400;10.808;2023-05-27T00:48:52;15.10;64.10
38514;DHT22;24282;48.400;10.808;2023-05-27T00:51:18;15.10;64.40
38514;DHT22;24282;48.400;10.808;2023-05-27T00:53:44;15.00;64.10
38514;DHT22;24282;48.400;10.808;2023-05-27T00:56:11;15.00;63.80
38514;DHT22;24282;48.400;10.808;2023-05-27T00:58:38;15.00;64.20
38514;DHT22;24282;48.400;10.808;2023-05-27T01:01:04;15.00;64.40
38514;DHT22;24282;48.400;10.808;2023-05-27T01:03:32;15.00;64.30
38514;DHT22;24282;48.400;10.808;2023-05-27T01:09:16;14.90;64.00
38514;DHT22;24282;48.400;10.808;2023-05-27T01:11:55;14.90;63.80
38514;DHT22;24282;48.400;10.808;2023-05-27T01:14:25;14.90;63.70
38514;DHT22;24282;48.400;10.808;2023-05-27T01:16:53;14.80;63.50
38514;DHT22;24282;48.400;10.808;2023-05-27T01:19:29;14.80;63.80
38514;DHT22;24282;48.400;10.808;2023-05-27T01:21:57;14.80;64.20
38514;DHT22;24282;48.400;10.808;2023-05-27T01:24:24;14.70;64.40
38514;DHT22;24282;48.400;10.808;2023-05-27T01:26:50;14.70;64.50
38514;DHT22;24282;48.400;10.808;2023-05-27T01:29:16;14.70;64.00
38514;DHT22;24282;48.400;10.808;2023-05-27T01:31:47;14.60;64.10
38514;DHT22;24282;48.400;10.808;2023-05-27T01:34:20;14.60;63.40
38514;DHT22;24282;48.400;10.808;2023-05-27T01:36:56;14.60;63.90
38514;DHT22;24282;48.400;10.808;2023-05-27T01:39:24;14.60;63.80
38514;DHT22;24282;48.400;10.808;2023-05-27T01:41:52;14.50;63.90
38514;DHT22;24282;48.400;10.808;2023-05-27T01:44:18;14.50;64.20
38514;DHT22;24282;48.400;10.808;2023-05-27T01:46:46;14.40;63.90
38514;DHT22;24282;48.400;10.808;2023-05-27T01:49:12;14.50;63.70
38514;DHT22;24282;48.400;10.808;2023-05-27T01:51:38;14.40;63.60
38514;DHT22;24282;48.400;10.808;2023-05-27T01:54:04;14.40;63.70
38514;DHT22;24282;48.400;10.808;2023-05-27T01:56:30;14.40;64.10
38514;DHT22;24282;48.400;10.808;2023-05-27T01:58:57;14.40;63.50
38514;DHT22;24282;48.400;10.808;2023-05-27T02:01:22;14.40;63.60
38514;DHT22;24282;48.400;10.808;2023-05-27T02:03:50;14.40;63.90
38514;DHT22;24282;48.400;10.808;2023-05-27T02:06:16;14.30;63.90
38514;DHT22;24282;48.400;10.808;2023-05-27T02:08:41;14.20;64.10
38514;DHT22;24282;48.400;10.808;2023-05-27T02:11:07;14.20;64.40
38514;DHT22;24282;48.400;10.808;2023-05-27T02:13:33;14.20;64.30
38514;DHT22;24282;48.400;10.808;2023-05-27T02:15:59;14.20;64.20
38514;DHT22;24282;48.400;10.808;2023-05-27T02:18:25;14.10;64.60
38514;DHT22;24282;48.400;10.808;2023-05-27T02:20:51;14.10;64.70
38514;DHT22;24282;48.400;10.808;2023-05-27T02:23:18;14.00;64.80
38514;DHT22;24282;48.400;10.808;2023-05-27T02:25:44;14.00;64.50
38514;DHT22;24282;48.400;10.808;2023-05-27T02:28:09;14.00;64.80
38514;DHT22;24282;48.400;10.808;2023-05-27T02:30:37;14.00;64.90
38514;DHT22;24282;48.400;10.808;2023-05-27T02:33:03;13.90;64.90
38514;DHT22;24282;48.400;10.808;2023-05-27T02:35:28;13.90;65.20
38514;DHT22;24282;48.400;10.808;2023-05-27T02:37:54;13.90;64.90
38514;DHT22;24282;48.400;10.808;2023-05-27T02:40:28;13.80;64.80
38514;DHT22;24282;48.400;10.808;2023-05-27T02:42:58;13.80;65.20
38514;DHT22;24282;48.400;10.808;2023-05-27T02:45:24;13.80;65.10
38514;DHT22;24282;48.400;10.808;2023-05-27T02:47:50;13.70;64.50
38514;DHT22;24282;48.400;10.808;2023-05-27T02:50:16;13.70;64.80
38514;DHT22;24282;48.400;10.808;2023-05-27T02:52:42;13.70;65.00
38514;DHT22;24282;48.400;10.808;2023-05-27T02:55:08;13.70;65.20
38514;DHT22;24282;48.400;10.808;2023-05-27T02:57:34;13.70;65.50
38514;DHT22;24282;48.400;10.808;2023-05-27T03:00:01;13.60;65.80
38514;DHT22;24282;48.400;10.808;2023-05-27T03:02:27;13.60;65.50
38514;DHT22;24282;48.400;10.808;2023-05-27T03:04:53;13.50;65.70
38514;DHT22;24282;48.400;10.808;2023-05-27T03:07:21;13.50;65.60
38514;DHT22;24282;48.400;10.808;2023-05-27T03:09:47;13.50;66.00
38514;DHT22;24282;48.400;10.808;2023-05-27T03:12:12;13.40;66.00
38514;DHT22;24282;48.400;10.808;2023-05-27T03:14:38;13.40;66.00
38514;DHT22;24282;48.400;10.808;2023-05-27T03:17:04;13.40;66.20
38514;DHT22;24282;48.400;10.808;2023-05-27T03:19:30;13.30;66.50
38514;DHT22;24282;48.400;10.808;2023-05-27T03:21:56;13.30;66.80
38514;DHT22;24282;48.400;10.808;2023-05-27T03:24:24;13.20;66.80
38514;DHT22;24282;48.400;10.808;2023-05-27T03:26:51;13.20;66.80
38514;DHT22;24282;48.400;10.808;2023-05-27T03:29:18;13.20;66.90
38514;DHT22;24282;48.400;10.808;2023-05-27T03:31:43;13.10;66.90
38514;DHT22;24282;48.400;10.808;2023-05-27T03:34:14;13.10;66.90
38514;DHT22;24282;48.400;10.808;2023-05-27T03:36:40;13.10;67.10
38514;DHT22;24282;48.400;10.808;2023-05-27T03:39:08;13.00;67.30
38514;DHT22;24282;48.400;10.808;2023-05-27T03:41:38;13.00;67.20
38514;DHT22;24282;48.400;10.808;2023-05-27T03:44:04;12.90;67.40
38514;DHT22;24282;48.400;10.808;2023-05-27T03:46:32;12.90;67.60
38514;DHT22;24282;48.400;10.808;2023-05-27T03:48:58;12.90;67.70
38514;DHT22;24282;48.400;10.808;2023-05-27T03:51:23;12.90;67.90
38514;DHT22;24282;48.400;10.808;2023-05-27T03:53:50;12.90;68.10
38514;DHT22;24282;48.400;10.808;2023-05-27T03:56:16;12.90;68.30
38514;DHT22;24282;48.400;10.808;2023-05-27T03:58:42;12.90;68.20
38514;DHT22;24282;48.400;10.808;2023-05-27T04:01:07;12.90;67.90
38514;DHT22;24282;48.400;10.808;2023-05-27T04:03:34;12.90;67.70
38514;DHT22;24282;48.400;10.808;2023-05-27T04:06:00;12.90;67.60
38514;DHT22;24282;48.400;10.808;2023-05-27T04:08:25;12.90;67.60
38514;DHT22;24282;48.400;10.808;2023-05-27T04:10:57;12.90;67.80
38514;DHT22;24282;48.400;10.808;2023-05-27T04:13:24;12.90;67.50
38514;DHT22;24282;48.400;10.808;2023-05-27T04:15:50;12.90;67.40
38514;DHT22;24282;48.400;10.808;2023-05-27T04:18:16;12.90;67.30
38514;DHT22;24282;48.400;10.808;2023-05-27T04:20:42;12.90;67.10
38514;DHT22;24282;48.400;10.808;2023-05-27T04:23:10;12.90;67.10
38514;DHT22;24282;48.400;10.808;2023-05-27T04:25:37;12.90;67.30
38514;DHT22;24282;48.400;10.808;2023-05-27T04:28:05;13.00;67.20
38514;DHT22;24282;48.400;10.808;2023-05-27T04:30:33;13.00;66.40
38514;DHT22;24282;48.400;10.808;2023-05-27T04:33:01;13.00;66.90
38514;DHT22;24282;48.400;10.808;2023-05-27T04:35:27;13.00;66.90
38514;DHT22;24282;48.400;10.808;2023-05-27T04:37:57;13.00;66.60
38514;DHT22;24282;48.400;10.808;2023-05-27T04:40:28;13.10;66.70
38514;DHT22;24282;48.400;10.808;2023-05-27T04:43:15;13.10;66.90
38514;DHT22;24282;48.400;10.808;2023-05-27T04:45:43;13.20;66.50
38514;DHT22;24282;48.400;10.808;2023-05-27T04:48:09;13.20;66.60
38514;DHT22;24282;48.400;10.808;2023-05-27T04:50:35;13.20;66.10
38514;DHT22;24282;48.400;10.808;2023-05-27T04:53:01;13.20;66.30
38514;DHT22;24282;48.400;10.808;2023-05-27T04:55:28;13.30;66.60
38514;DHT22;24282;48.400;10.808;2023-05-27T04:57:55;13.30;66.00
38514;DHT22;24282;48.400;10.808;2023-05-27T05:00:22;13.30;66.10
38514;DHT22;24282;48.400;10.808;2023-05-27T05:03:26;13.30;66.50
38514;DHT22;24282;48.400;10.808;2023-05-27T05:06:03;13.40;65.70
38514;DHT22;24282;48.400;10.808;2023-05-27T05:08:31;13.40;66.10
38514;DHT22;24282;48.400;10.808;2023-05-27T05:10:57;13.40;66.00
38514;DHT22;24282;48.400;10.808;2023-05-27T05:13:25;13.40;65.80
38514;DHT22;24282;48.400;10.808;2023-05-27T05:15:55;13.40;66.10
38514;DHT22;24282;48.400;10.808;2023-05-27T05:18:21;13.50;66.20
38514;DHT22;24282;48.400;10.808;2023-05-27T05:20:47;13.50;65.90
38514;DHT22;24282;48.400;10.808;2023-05-27T05:23:17;13.50;66.10
38514;DHT22;24282;48.400;10.808;2023-05-27T05:25:45;13.60;65.50
38514;DHT22;24282;48.400;10.808;2023-05-27T05:28:12;13.60;65.80
38514;DHT22;24282;48.400;10.808;2023-05-27T05:30:39;13.60;65.30
38514;DHT22;24282;48.400;10.808;2023-05-27T05:33:05;13.70;65.40
38514;DHT22;24282;48.400;10.808;2023-05-27T05:35:32;13.70;65.50
38514;DHT22;24282;48.400;10.808;2023-05-27T05:38:13;13.70;65.20
38514;DHT22;24282;48.400;10.808;2023-05-27T05:40:39;13.70;65.50
38514;DHT22;24282;48.400;10.808;2023-05-27T05:43:13;13.80;65.40
38514;DHT22;24282;48.400;10.808;2023-05-27T05:45:39;13.80;64.80
38514;DHT22;24282;48.400;10.808;2023-05-27T05:48:05;13.90;64.70
38514;DHT22;24282;48.400;10.808;2023-05-27T05:50:31;13.80;64.90
38514;DHT22;24282;48.400;10.808;2023-05-27T05:52:58;13.90;65.20
38514;DHT22;24282;48.400;10.808;2023-05-27T05:55:24;13.90;65.60
38514;DHT22;24282;48.400;10.808;2023-05-27T05:57:49;14.00;65.30
38514;DHT22;24282;48.400;10.808;2023-05-27T06:00:16;14.10;64.90
38514;DHT22;24282;48.400;10.808;2023-05-27T06:02:44;14.10;64.70
38514;DHT22;24282;48.400;10.808;2023-05-27T06:05:16;14.20;64.70
38514;DHT22;24282;48.400;10.808;2023-05-27T06:07:42;14.20;64.90
38514;DHT22;24282;48.400;10.808;2023-05-27T06:10:09;14.20;64.70
38514;DHT22;24282;48.400;10.808;2023-05-27T06:12:41;14.30;64.50
38514;DHT22;24282;48.400;10.808;2023-05-27T06:15:07;14.30;64.20
38514;DHT22;24282;48.400;10.808;2023-05-27T06:17:39;14.40;64.10
38514;DHT22;24282;48.400;10.808;2023-05-27T06:20:05;14.40;63.40
38514;DHT22;24282;48.400;10.808;2023-05-27T06:22:32;14.40;63.00
38514;DHT22;24282;48.400;10.808;2023-05-27T06:25:00;14.50;62.90
38514;DHT22;24282;48.400;10.808;2023-05-27T06:27:38;14.50;63.00
38514;DHT22;24282;48.400;10.808;2023-05-27T06:30:04;14.60;63.00
38514;DHT22;24282;48.400;10.808;2023-05-27T06:32:34;14.60;63.40
38514;DHT22;24282;48.400;10.808;2023-05-27T06:35:01;14.70;63.80
38514;DHT22;24282;48.400;10.808;2023-05-27T06:37:27;14.70;63.10
38514;DHT22;24282;48.400;10.808;2023-05-27T06:39:52;14.80;62.80
38514;DHT22;24282;48.400;10.808;2023-05-27T06:42:18;14.90;63.00
38514;DHT22;24282;48.400;10.808;2023-05-27T06:44:51;14.90;62.70
38514;DHT22;24282;48.400;10.808;2023-05-27T06:47:20;14.90;62.60
38514;DHT22;24282;48.400;10.808;2023-05-27T06:49:48;15.00;62.10
38514;DHT22;24282;48.400;10.808;2023-05-27T06:52:14;15.00;62.10
38514;DHT22;24282;48.400;10.808;2023-05-27T06:54:58;15.10;62.40
38514;DHT22;24282;48.400;10.808;2023-05-27T06:57:43;15.10;62.40
38514;DHT22;24282;48.400;10.808;2023-05-27T07:00:15;15.10;62.10
38514;DHT22;24282;48.400;10.808;2023-05-27T07:02:54;15.20;62.20
38514;DHT22;24282;48.400;10.808;2023-05-27T07:05:20;15.30;61.90
38514;DHT22;24282;48.400;10.808;2023-05-27T07:07:46;15.30;62.40
38514;DHT22;24282;48.400;10.808;2023-05-27T07:10:12;15.40;62.00
38514;DHT22;24282;48.400;10.808;2023-05-27T07:12:38;15.50;61.60
38514;DHT22;24282;48.400;10.808;2023-05-27T07:15:26;15.60;61.80
38514;DHT22;24282;48.400;10.808;2023-05-27T07:17:56;15.70;61.50
38514;DHT22;24282;48.400;10.808;2023-05-27T07:20:22;15.80;61.80
38514;DHT22;24282;48.400;10.808;2023-05-27T07:22:48;15.80;61.60
38514;DHT22;24282;48.400;10.808;2023-05-27T07:25:14;15.90;60.40
38514;DHT22;24282;48.400;10.808;2023-05-27T07:27:41;16.00;60.20
38514;DHT22;24282;48.400;10.808;2023-05-27T07:30:07;16.00;60.10
38514;DHT22;24282;48.400;10.808;2023-05-27T07:32:42;16.10;60.40
38514;DHT22;24282;48.400;10.808;2023-05-27T07:35:08;16.20;59.90
38514;DHT22;24282;48.400;10.808;2023-05-27T07:37:33;16.40;60.30
38514;DHT22;24282;48.400;10.808;2023-05-27T07:39:59;16.40;59.90
38514;DHT22;24282;48.400;10.808;2023-05-27T07:42:25;16.50;59.80
38514;DHT22;24282;48.400;10.808;2023-05-27T07:44:51;16.60;58.90
38514;DHT22;24282;48.400;10.808;2023-05-27T07:47:17;16.70;59.10
38514;DHT22;24282;48.400;10.808;2023-05-27T07:49:43;16.90;58.10
38514;DHT22;24282;48.400;10.808;2023-05-27T07:52:29;17.00;57.80
38514;DHT22;24282;48.400;10.808;2023-05-27T07:54:55;17.10;57.90
38514;DHT22;24282;48.400;10.808;2023-05-27T07:57:24;17.30;57.40
38514;DHT22;24282;48.400;10.808;2023-05-27T07:59:50;17.40;56.40
38514;DHT22;24282;48.400;10.808;2023-05-27T08:02:17;17.40;56.40
38514;DHT22;24282;48.400;10.808;2023-05-27T08:04:44;17.60;56.50
38514;DHT22;24282;48.400;10.808;2023-05-27T08:07:39;17.70;56.40
38514;DHT22;24282;48.400;10.808;2023-05-27T08:10:22;17.90;56.50
38514;DHT22;24282;48.400;10.808;2023-05-27T08:13:06;18.00;56.80
38514;DHT22;24282;48.400;10.808;2023-05-27T08:15:41;18.20;56.50
38514;DHT22;24282;48.400;10.808;2023-05-27T08:18:24;18.40;56.00
38514;DHT22;24282;48.400;10.808;2023-05-27T08:21:12;18.50;55.00
38514;DHT22;24282;48.400;10.808;2023-05-27T08:23:56;18.70;55.20
38514;DHT22;24282;48.400;10.808;2023-05-27T08:26:25;18.90;54.40
38514;DHT22;24282;48.400;10.808;2023-05-27T08:29:02;19.00;54.80
38514;DHT22;24282;48.400;10.808;2023-05-27T08:31:48;19.20;54.10
38514;DHT22;24282;48.400;10.808;2023-05-27T08:34:17;19.40;53.00
38514;DHT22;24282;48.400;10.808;2023-05-27T08:36:42;19.50;53.30
38514;DHT22;24282;48.400;10.808;2023-05-27T08:39:08;19.60;52.60
38514;DHT22;24282;48.400;10.808;2023-05-27T08:41:43;19.80;52.60
38514;DHT22;24282;48.400;10.808;2023-05-27T08:44:09;19.90;52.40
38514;DHT22;24282;48.400;10.808;2023-05-27T08:46:36;20.00;51.20
38514;DHT22;24282;48.400;10.808;2023-05-27T08:49:02;20.10;51.80
38514;DHT22;24282;48.400;10.808;2023-05-27T08:51:29;20.30;52.00
38514;DHT22;24282;48.400;10.808;2023-05-27T08:53:55;20.40;51.80
38514;DHT22;24282;48.400;10.808;2023-05-27T08:56:22;20.60;51.70
38514;DHT22;24282;48.400;10.808;2023-05-27T08:58:49;20.70;50.60
38514;DHT22;24282;48.400;10.808;2023-05-27T09:01:19;20.80;50.50
38514;DHT22;24282;48.400;10.808;2023-05-27T09:03:47;20.90;50.50
38514;DHT22;24282;48.400;10.808;2023-05-27T09:06:14;21.00;50.20
38514;DHT22;24282;48.400;10.808;2023-05-27T09:08:39;21.10;50.30
38514;DHT22;24282;48.400;10.808;2023-05-27T09:11:05;21.20;50.10
38514;DHT22;24282;48.400;10.808;2023-05-27T09:13:33;21.30;49.90
38514;DHT22;24282;48.400;10.808;2023-05-27T09:16:05;21.40;49.80
38514;DHT22;24282;48.400;10.808;2023-05-27T09:18:32;21.40;50.50
38514;DHT22;24282;48.400;10.808;2023-05-27T09:20:59;21.50;49.70
38514;DHT22;24282;48.400;10.808;2023-05-27T09:23:25;21.60;49.20
38514;DHT22;24282;48.400;10.808;2023-05-27T09:25:51;21.60;49.20
38514;DHT22;24282;48.400;10.808;2023-05-27T09:28:24;21.70;49.80
38514;DHT22;24282;48.400;10.808;2023-05-27T09:30:58;21.80;49.10
38514;DHT22;24282;48.400;10.808;2023-05-27T09:33:23;21.90;49.40
38514;DHT22;24282;48.400;10.808;2023-05-27T09:35:50;22.00;48.90
38514;DHT22;24282;48.400;10.808;2023-05-27T09:38:16;22.10;49.30
38514;DHT22;24282;48.400;10.808;2023-05-27T09:40:44;22.20;48.60
38514;DHT22;24282;48.400;10.808;2023-05-27T09:43:13;22.30;48.20
38514;DHT22;24282;48.400;10.808;2023-05-27T09:45:40;22.50;47.50
38514;DHT22;24282;48.400;10.808;2023-05-27T09:48:06;22.70;46.80
38514;DHT22;24282;48.400;10.808;2023-05-27T09:50:34;22.80;45.90
38514;DHT22;24282;48.400;10.808;2023-05-27T09:53:00;22.90;45.90
38514;DHT22;24282;48.400;10.808;2023-05-27T09:55:28;22.90;45.80
38514;DHT22;24282;48.400;10.808;2023-05-27T09:57:54;22.90;45.60
38514;DHT22;24282;48.400;10.808;2023-05-27T10:00:21;22.90;45.70
38514;DHT22;24282;48.400;10.808;2023-05-27T10:02:47;22.90;45.80
38514;DHT22;24282;48.400;10.808;2023-05-27T10:05:15;22.90;45.60
38514;DHT22;24282;48.400;10.808;2023-05-27T10:07:45;22.90;45.70
38514;DHT22;24282;48.400;10.808;2023-05-27T10:10:12;22.90;45.50
38514;DHT22;24282;48.400;10.808;2023-05-27T10:12:43;23.00;45.90
38514;DHT22;24282;48.400;10.808;2023-05-27T10:15:20;23.10;45.70
38514;DHT22;24282;48.400;10.808;2023-05-27T10:17:57;23.20;45.50
38514;DHT22;24282;48.400;10.808;2023-05-27T10:20:36;23.30;45.80
38514;DHT22;24282;48.400;10.808;2023-05-27T10:23:13;23.40;44.70
38514;DHT22;24282;48.400;10.808;2023-05-27T10:28:33;23.60;44.00
38514;DHT22;24282;48.400;10.808;2023-05-27T10:33:41;23.80;43.20
38514;DHT22;24282;48.400;10.808;2023-05-27T10:36:09;23.90;43.70
38514;DHT22;24282;48.400;10.808;2023-05-27T10:38:36;23.90;43.80
38514;DHT22;24282;48.400;10.808;2023-05-27T10:41:03;24.10;43.50
38514;DHT22;24282;48.400;10.808;2023-05-27T10:43:30;24.20;42.80
38514;DHT22;24282;48.400;10.808;2023-05-27T10:46:09;24.20;42.10
38514;DHT22;24282;48.400;10.808;2023-05-27T10:48:37;24.40;42.50
38514;DHT22;24282;48.400;10.808;2023-05-27T10:51:05;24.40;41.60
38514;DHT22;24282;48.400;10.808;2023-05-27T10:53:35;24.40;42.50
38514;DHT22;24282;48.400;10.808;2023-05-27T10:56:01;24.60;42.60
38514;DHT22;24282;48.400;10.808;2023-05-27T10:58:27;24.70;43.00
38514;DHT22;24282;48.400;10.808;2023-05-27T11:00:54;24.80;41.80
38514;DHT22;24282;48.400;10.808;2023-05-27T11:03:24;24.70;41.00
38514;DHT22;24282;48.400;10.808;2023-05-27T11:06:05;24.70;41.30
38514;DHT22;24282;48.400;10.808;2023-05-27T11:08:34;24.70;40.90
38514;DHT22;24282;48.400;10.808;2023-05-27T11:11:06;24.70;41.00
38514;DHT22;24282;48.400;10.808;2023-05-27T11:13:38;24.80;41.50
38514;DHT22;24282;48.400;10.808;2023-05-27T11:16:06;24.80;41.40
38514;DHT22;24282;48.400;10.808;2023-05-27T11:18:39;24.90;39.90
38514;DHT22;24282;48.400;10.808;2023-05-27T11:21:06;25.00;39.80
38514;DHT22;24282;48.400;10.808;2023-05-27T11:23:43;25.10;39.00
38514;DHT22;24282;48.400;10.808;2023-05-27T11:28:51;25.30;39.30
38514;DHT22;24282;48.400;10.808;2023-05-27T11:31:18;25.30;39.50
38514;DHT22;24282;48.400;10.808;2023-05-27T11:33:48;25.30;38.80
38514;DHT22;24282;48.400;10.808;2023-05-27T11:36:15;25.40;37.40
38514;DHT22;24282;48.400;10.808;2023-05-27T11:38:58;25.50;37.10
38514;DHT22;24282;48.400;10.808;2023-05-27T11:41:26;25.60;37.40
38514;DHT22;24282;48.400;10.808;2023-05-27T11:44:04;25.70;37.50
38514;DHT22;24282;48.400;10.808;2023-05-27T11:46:37;25.80;37.50
38514;DHT22;24282;48.400;10.808;2023-05-27T11:49:05;25.90;38.50
38514;DHT22;24282;48.400;10.808;2023-05-27T11:51:34;25.90;38.50
38514;DHT22;24282;48.400;10.808;2023-05-27T11:54:00;25.90;38.40
38514;DHT22;24282;48.400;10.808;2023-05-27T11:56:29;26.00;37.80
38514;DHT22;24282;48.400;10.808;2023-05-27T11:58:55;26.10;38.50
38514;DHT22;24282;48.400;10.808;2023-05-27T12:01:22;26.10;37.00
38514;DHT22;24282;48.400;10.808;2023-05-27T12:03:47;26.10;37.10
38514;DHT22;24282;48.400;10.808;2023-05-27T12:06:13;26.10;36.50
38514;DHT22;24282;48.400;10.808;2023-05-27T12:08:41;26.10;36.00
38514;DHT22;24282;48.400;10.808;2023-05-27T12:11:07;26.20;36.80
38514;DHT22;24282;48.400;10.808;2023-05-27T12:13:33;26.20;36.70
38514;DHT22;24282;48.400;10.808;2023-05-27T12:15:59;26.20;36.60
38514;DHT22;24282;48.400;10.808;2023-05-27T12:18:25;26.30;36.20
38514;DHT22;24282;48.400;10.808;2023-05-27T12:20:51;26.30;37.20
38514;DHT22;24282;48.400;10.808;2023-05-27T12:23:17;26.40;36.20
38514;DHT22;24282;48.400;10.808;2023-05-27T12:25:43;26.40;35.60
38514;DHT22;24282;48.400;10.808;2023-05-27T12:28:09;26.50;35.30
38514;DHT22;24282;48.400;10.808;2023-05-27T12:30:36;26.60;35.20
38514;DHT22;24282;48.400;10.808;2023-05-27T12:33:06;26.50;35.60
38514;DHT22;24282;48.400;10.808;2023-05-27T12:35:34;26.60;36.00
38514;DHT22;24282;48.400;10.808;2023-05-27T12:38:01;26.60;35.90
38514;DHT22;24282;48.400;10.808;2023-05-27T12:40:26;26.70;36.20
38514;DHT22;24282;48.400;10.808;2023-05-27T12:42:53;26.80;36.40
38514;DHT22;24282;48.400;10.808;2023-05-27T12:45:18;26.80;36.40
38514;DHT22;24282;48.400;10.808;2023-05-27T12:47:48;26.90;35.60
38514;DHT22;24282;48.400;10.808;2023-05-27T12:50:14;26.80;35.10
38514;DHT22;24282;48.400;10.808;2023-05-27T12:52:40;26.80;35.00
38514;DHT22;24282;48.400;10.808;2023-05-27T12:55:14;26.80;34.80
38514;DHT22;24282;48.400;10.808;2023-05-27T12:57:43;26.90;34.80
38514;DHT22;24282;48.400;10.808;2023-05-27T13:00:10;27.00;35.20
38514;DHT22;24282;48.400;10.808;2023-05-27T13:02:37;27.00;34.70
38514;DHT22;24282;48.400;10.808;2023-05-27T13:05:04;27.00;35.10
38514;DHT22;24282;48.400;10.808;2023-05-27T13:07:30;27.10;35.30
38514;DHT22;24282;48.400;10.808;2023-05-27T13:09:55;27.10;34.80
38514;DHT22;24282;48.400;10.808;2023-05-27T13:12:22;27.00;34.50
38514;DHT22;24282;48.400;10.808;2023-05-27T13:14:47;27.00;33.90
38514;DHT22;24282;48.400;10.808;2023-05-27T13:17:14;27.00;34.10
38514;DHT22;24282;48.400;10.808;2023-05-27T13:19:39;27.00;34.70
38514;DHT22;24282;48.400;10.808;2023-05-27T13:22:05;27.10;34.70
38514;DHT22;24282;48.400;10.808;2023-05-27T13:24:31;27.10;33.70
38514;DHT22;24282;48.400;10.808;2023-05-27T13:26:57;27.20;33.30
38514;DHT22;24282;48.400;10.808;2023-05-27T13:29:23;27.30;33.40
38514;DHT22;24282;48.400;10.808;2023-05-27T13:31:50;27.30;32.80
38514;DHT22;24282;48.400;10.808;2023-05-27T13:34:16;27.30;32.60
38514;DHT22;24282;48.400;10.808;2023-05-27T13:36:42;27.30;33.00
38514;DHT22;24282;48.400;10.808;2023-05-27T13:39:08;27.30;33.30
38514;DHT22;24282;48.400;10.808;2023-05-27T13:41:34;27.30;32.60
38514;DHT22;24282;48.400;10.808;2023-05-27T13:43:59;27.40;33.30
38514;DHT22;24282;48.400;10.808;2023-05-27T13:46:25;27.40;33.50
38514;DHT22;24282;48.400;10.808;2023-05-27T13:48:51;27.50;32.80
38514;DHT22;24282;48.400;10.808;2023-05-27T13:51:17;27.50;32.30
38514;DHT22;24282;48.400;10.808;2023-05-27T13:53:42;27.60;32.10
38514;DHT22;24282;48.400;10.808;2023-05-27T13:56:08;27.50;32.70
38514;DHT22;24282;48.400;10.808;2023-05-27T13:58:34;27.60;32.40
38514;DHT22;24282;48.400;10.808;2023-05-27T14:01:00;27.60;32.10
38514;DHT22;24282;48.400;10.808;2023-05-27T14:03:26;27.60;31.80
38514;DHT22;24282;48.400;10.808;2023-05-27T14:05:51;27.50;31.70
38514;DHT22;24282;48.400;10.808;2023-05-27T14:08:17;27.50;33.00
38514;DHT22;24282;48.400;10.808;2023-05-27T14:10:43;27.50;33.30
38514;DHT22;24282;48.400;10.808;2023-05-27T14:13:09;27.60;33.30
38514;DHT22;24282;48.400;10.808;2023-05-27T14:15:35;27.60;32.30
38514;DHT22;24282;48.400;10.808;2023-05-27T14:18:01;27.50;31.80
38514;DHT22;24282;48.400;10.808;2023-05-27T14:20:27;27.50;32.30
38514;DHT22;24282;48.400;10.808;2023-05-27T14:22:52;27.50;32.00
38514;DHT22;24282;48.400;10.808;2023-05-27T14:25:18;27.50;33.10
38514;DHT22;24282;48.400;10.808;2023-05-27T14:27:45;27.50;33.10
38514;DHT22;24282;48.400;10.808;2023-05-27T14:30:11;27.50;32.80
38514;DHT22;24282;48.400;10.808;2023-05-27T14:32:37;27.50;32.60
38514;DHT22;24282;48.400;10.808;2023-05-27T14:35:03;27.50;32.40
38514;DHT22;24282;48.400;10.808;2023-05-27T14:37:29;27.40;31.50
38514;DHT22;24282;48.400;10.808;2023-05-27T14:39:55;27.40;31.70
38514;DHT22;24282;48.400;10.808;2023-05-27T14:42:20;27.40;32.10
38514;DHT22;24282;48.400;10.808;2023-05-27T14:44:46;27.40;32.00
38514;DHT22;24282;48.400;10.808;2023-05-27T14:47:12;27.40;31.50
38514;DHT22;24282;48.400;10.808;2023-05-27T14:49:38;27.40;31.40
38514;DHT22;24282;48.400;10.808;2023-05-27T14:52:04;27.30;31.90
38514;DHT22;24282;48.400;10.808;2023-05-27T14:54:29;27.30;32.50
38514;DHT22;24282;48.400;10.808;2023-05-27T14:56:55;27.30;31.90
38514;DHT22;24282;48.400;10.808;2023-05-27T14:59:21;27.30;32.40
38514;DHT22;24282;48.400;10.808;2023-05-27T15:01:50;27.30;33.40
38514;DHT22;24282;48.400;10.808;2023-05-27T15:04:16;27.30;33.10
38514;DHT22;24282;48.400;10.808;2023-05-27T15:06:42;27.30;33.40
38514;DHT22;24282;48.400;10.808;2023-05-27T15:09:08;27.20;32.50
38514;DHT22;24282;48.400;10.808;2023-05-27T15:11:38;27.10;33.00
38514;DHT22;24282;48.400;10.808;2023-05-27T15:14:04;27.10;32.90
38514;DHT22;24282;48.400;10.808;2023-05-27T15:16:29;27.00;32.50
38514;DHT22;24282;48.400;10.808;2023-05-27T15:18:58;27.00;32.60
38514;DHT22;24282;48.400;10.808;2023-05-27T15:21:25;27.00;32.70
38514;DHT22;24282;48.400;10.808;2023-05-27T15:23:51;26.90;32.30
38514;DHT22;24282;48.400;10.808;2023-05-27T15:26:17;26.90;32.40
38514;DHT22;24282;48.400;10.808;2023-05-27T15:28:43;26.80;32.50
38514;DHT22;24282;48.400;10.808;2023-05-27T15:31:09;26.80;32.80